sensor_id;sensor_type;location;lat;lon;timestamp;pressure;altitude;pressure_sealevel;temperature;humidity
43155;BME280;34212;51.018;13.586;2023-04-02T00:11:35;96977.13;;;9.76;91.60
43155;BME280;34212;51.018;13.586;2023-04-02T00:16:37;96990.00;;;9.72;92.18
43155;BME280;34212;51.018;13.586;2023-04-02T00:21:40;96998.41;;;9.76;92.67
43155;BME280;34212;51.018;13.586;2023-04-02T00:26:45;97000.66;;;9.72;91.82
43155;BME280;34212;51.018;13.586;2023-04-02T00:31:50;97009.19;;;9.67;92.58
43155;BME280;34212;51.018;13.586;2023-04-02T00:36:53;97018.34;;;9.58;91.26
43155;BME280;34212;51.018;13.586;2023-04-02T00:41:57;97026.06;;;9.53;91.93
43155;BME280;34212;51.018;13.586;2023-04-02T00:47:26;97035.63;;;9.41;91.50
43155;BME280;34212;51.018;13.586;2023-04-02T00:52:32;97040.84;;;9.34;92.20
43155;BME280;34212;51.018;13.586;2023-04-02T00:57:36;97048.84;;;9.34;91.71
43155;BME280;34212;51.018;13.586;2023-04-02T01:02:38;97061.97;;;9.36;91.92
43155;BME280;34212;51.018;13.586;2023-04-02T01:08:08;97066.66;;;9.34;91.22
43155;BME280;34212;51.018;13.586;2023-04-02T01:24:07;97074.09;;;9.02;90.80
43155;BME280;34212;51.018;13.586;2023-04-02T01:29:12;97094.06;;;8.76;90.24
43155;BME280;34212;51.018;13.586;2023-04-02T01:34:19;97099.66;;;8.67;90.60
43155;BME280;34212;51.018;13.586;2023-04-02T01:45:14;97124.41;;;8.52;89.75
43155;BME280;34212;51.018;13.586;2023-04-02T02:00:54;97150.94;;;8.38;90.58
43155;BME280;34212;51.018;13.586;2023-04-02T02:05:58;97162.28;;;8.31;90.23
43155;BME280;34212;51.018;13.586;2023-04-02T02:11:02;97162.53;;;8.22;90.60
43155;BME280;34212;51.018;13.586;2023-04-02T02:16:05;97168.66;;;8.07;89.78
43155;BME280;34212;51.018;13.586;2023-04-02T02:21:07;97182.66;;;8.01;91.27
43155;BME280;34212;51.018;13.586;2023-04-02T02:26:12;97192.81;;;7.98;90.57
43155;BME280;34212;51.018;13.586;2023-04-02T02:31:19;97198.84;;;7.92;90.11
43155;BME280;34212;51.018;13.586;2023-04-02T02:36:31;97209.47;;;7.92;90.57
43155;BME280;34212;51.018;13.586;2023-04-02T02:46:56;97221.50;;;7.79;89.22
43155;BME280;34212;51.018;13.586;2023-04-02T02:52:12;97227.03;;;7.70;89.74
43155;BME280;34212;51.018;13.586;2023-04-02T02:57:28;97246.13;;;7.65;90.11
43155;BME280;34212;51.018;13.586;2023-04-02T03:02:34;97255.59;;;7.59;89.82
43155;BME280;34212;51.018;13.586;2023-04-02T03:07:40;97256.50;;;7.52;89.41
43155;BME280;34212;51.018;13.586;2023-04-02T03:13:08;97270.47;;;7.37;89.87
43155;BME280;34212;51.018;13.586;2023-04-02T03:18:34;97279.09;;;7.39;89.71
43155;BME280;34212;51.018;13.586;2023-04-02T03:23:42;97291.34;;;7.40;89.75
43155;BME280;34212;51.018;13.586;2023-04-02T03:28:50;97297.34;;;7.34;89.74
43155;BME280;34212;51.018;13.586;2023-04-02T03:33:58;97308.31;;;7.31;89.92
43155;BME280;34212;51.018;13.586;2023-04-02T03:39:11;97321.06;;;7.36;90.56
43155;BME280;34212;51.018;13.586;2023-04-02T03:44:22;97335.47;;;7.42;90.53
43155;BME280;34212;51.018;13.586;2023-04-02T03:49:34;97340.63;;;7.35;89.46
43155;BME280;34212;51.018;13.586;2023-04-02T03:54:38;97359.72;;;7.22;89.47
43155;BME280;34212;51.018;13.586;2023-04-02T04:00:04;97371.34;;;7.21;89.97
43155;BME280;34212;51.018;13.586;2023-04-02T04:05:27;97381.28;;;7.19;88.70
43155;BME280;34212;51.018;13.586;2023-04-02T04:10:32;97381.63;;;7.08;89.19
43155;BME280;34212;51.018;13.586;2023-04-02T04:20:50;97415.94;;;6.93;89.15
43155;BME280;34212;51.018;13.586;2023-04-02T04:26:06;97426.38;;;7.03;89.51
43155;BME280;34212;51.018;13.586;2023-04-02T04:31:29;97439.97;;;7.08;89.44
43155;BME280;34212;51.018;13.586;2023-04-02T04:36:43;97443.78;;;7.13;89.46
43155;BME280;34212;51.018;13.586;2023-04-02T04:41:58;97447.91;;;7.00;88.04
43155;BME280;34212;51.018;13.586;2023-04-02T04:47:23;97465.63;;;6.75;88.17
43155;BME280;34212;51.018;13.586;2023-04-02T04:52:32;97474.09;;;6.70;89.40
43155;BME280;34212;51.018;13.586;2023-04-02T04:57:36;97488.31;;;6.69;88.64
43155;BME280;34212;51.018;13.586;2023-04-02T05:02:55;97498.41;;;6.65;88.40
43155;BME280;34212;51.018;13.586;2023-04-02T05:08:21;97520.13;;;6.61;88.70
43155;BME280;34212;51.018;13.586;2023-04-02T05:13:34;97524.22;;;6.55;88.57
43155;BME280;34212;51.018;13.586;2023-04-02T05:18:42;97541.88;;;6.38;88.12
43155;BME280;34212;51.018;13.586;2023-04-02T05:23:59;97554.59;;;6.27;88.22
43155;BME280;34212;51.018;13.586;2023-04-02T05:29:16;97567.97;;;6.25;88.89
43155;BME280;34212;51.018;13.586;2023-04-02T05:34:27;97571.44;;;6.25;88.28
43155;BME280;34212;51.018;13.586;2023-04-02T05:39:30;97579.69;;;6.14;88.50
43155;BME280;34212;51.018;13.586;2023-04-02T05:44:37;97592.88;;;6.06;88.56
43155;BME280;34212;51.018;13.586;2023-04-02T05:49:46;97602.94;;;6.03;88.61
43155;BME280;34212;51.018;13.586;2023-04-02T06:05:44;97626.84;;;6.11;88.55
43155;BME280;34212;51.018;13.586;2023-04-02T06:10:52;97638.66;;;5.98;87.69
43155;BME280;34212;51.018;13.586;2023-04-02T06:15:58;97653.03;;;5.78;87.76
43155;BME280;34212;51.018;13.586;2023-04-02T06:21:04;97663.19;;;5.65;88.15
43155;BME280;34212;51.018;13.586;2023-04-02T06:26:26;97670.72;;;5.60;89.31
43155;BME280;34212;51.018;13.586;2023-04-02T06:31:44;97673.38;;;5.60;89.08
43155;BME280;34212;51.018;13.586;2023-04-02T06:36:56;97692.59;;;5.62;89.02
43155;BME280;34212;51.018;13.586;2023-04-02T06:42:03;97700.53;;;5.62;89.00
43155;BME280;34212;51.018;13.586;2023-04-02T06:47:42;97712.75;;;5.63;88.64
43155;BME280;34212;51.018;13.586;2023-04-02T06:53:55;97725.59;;;5.57;88.57
43155;BME280;34212;51.018;13.586;2023-04-02T06:58:38;97739.16;;;5.54;88.90
43155;BME280;34212;51.018;13.586;2023-04-02T07:03:41;97755.84;;;5.55;88.91
43155;BME280;34212;51.018;13.586;2023-04-02T07:09:04;97752.97;;;5.48;89.83
43155;BME280;34212;51.018;13.586;2023-04-02T07:14:11;97771.72;;;5.55;89.46
43155;BME280;34212;51.018;13.586;2023-04-02T07:19:19;97772.25;;;5.59;89.28
43155;BME280;34212;51.018;13.586;2023-04-02T07:24:24;97780.72;;;5.62;89.60
43155;BME280;34212;51.018;13.586;2023-04-02T07:29:25;97784.34;;;5.61;89.01
43155;BME280;34212;51.018;13.586;2023-04-02T07:34:27;97804.81;;;5.59;89.00
43155;BME280;34212;51.018;13.586;2023-04-02T07:39:28;97806.19;;;5.63;89.58
43155;BME280;34212;51.018;13.586;2023-04-02T07:44:30;97814.59;;;5.59;89.28
43155;BME280;34212;51.018;13.586;2023-04-02T07:49:31;97825.53;;;5.64;89.29
43155;BME280;34212;51.018;13.586;2023-04-02T07:54:33;97844.09;;;5.54;88.39
43155;BME280;34212;51.018;13.586;2023-04-02T07:59:35;97847.22;;;5.49;89.65
43155;BME280;34212;51.018;13.586;2023-04-02T08:04:37;97851.75;;;5.57;90.06
43155;BME280;34212;51.018;13.586;2023-04-02T08:09:38;97862.28;;;5.67;89.53
43155;BME280;34212;51.018;13.586;2023-04-02T08:14:40;97874.91;;;5.73;89.94
43155;BME280;34212;51.018;13.586;2023-04-02T08:19:41;97875.19;;;5.79;90.32
43155;BME280;34212;51.018;13.586;2023-04-02T08:24:55;97886.97;;;5.85;89.93
43155;BME280;34212;51.018;13.586;2023-04-02T08:29:57;97895.91;;;5.84;90.06
43155;BME280;34212;51.018;13.586;2023-04-02T08:34:59;97902.84;;;5.85;89.74
43155;BME280;34212;51.018;13.586;2023-04-02T08:40:00;97906.50;;;5.84;90.09
43155;BME280;34212;51.018;13.586;2023-04-02T08:45:28;97922.06;;;5.87;89.75
43155;BME280;34212;51.018;13.586;2023-04-02T08:50:41;97927.50;;;5.95;90.48
43155;BME280;34212;51.018;13.586;2023-04-02T08:55:56;97928.63;;;5.93;88.97
43155;BME280;34212;51.018;13.586;2023-04-02T09:01:06;97943.72;;;5.83;89.60
43155;BME280;34212;51.018;13.586;2023-04-02T09:06:15;97948.88;;;5.74;89.03
43155;BME280;34212;51.018;13.586;2023-04-02T09:11:40;97956.28;;;5.71;89.31
43155;BME280;34212;51.018;13.586;2023-04-02T09:16:48;97969.50;;;5.71;89.61
43155;BME280;34212;51.018;13.586;2023-04-02T09:21:54;97977.16;;;5.74;89.46
43155;BME280;34212;51.018;13.586;2023-04-02T09:26:57;97987.00;;;5.82;89.82
43155;BME280;34212;51.018;13.586;2023-04-02T09:32:09;97995.38;;;5.87;89.53
43155;BME280;34212;51.018;13.586;2023-04-02T09:37:16;98002.16;;;5.99;89.59
43155;BME280;34212;51.018;13.586;2023-04-02T09:42:34;98003.69;;;6.01;89.55
43155;BME280;34212;51.018;13.586;2023-04-02T09:47:38;98031.81;;;6.03;89.30
43155;BME280;34212;51.018;13.586;2023-04-02T09:52:42;98026.84;;;5.90;88.94
43155;BME280;34212;51.018;13.586;2023-04-02T09:57:46;98039.13;;;5.81;88.72
43155;BME280;34212;51.018;13.586;2023-04-02T10:08:32;98064.50;;;5.74;89.28
43155;BME280;34212;51.018;13.586;2023-04-02T10:13:45;98075.88;;;5.84;89.33
43155;BME280;34212;51.018;13.586;2023-04-02T10:18:57;98076.13;;;5.91;89.19
43155;BME280;34212;51.018;13.586;2023-04-02T10:23:59;98081.19;;;5.94;89.26
43155;BME280;34212;51.018;13.586;2023-04-02T10:34:33;98092.16;;;6.09;89.64
43155;BME280;34212;51.018;13.586;2023-04-02T10:40:09;98096.00;;;6.24;89.45
43155;BME280;34212;51.018;13.586;2023-04-02T10:55:51;98120.69;;;6.52;89.35
43155;BME280;34212;51.018;13.586;2023-04-02T11:01:10;98141.91;;;6.52;88.84
43155;BME280;34212;51.018;13.586;2023-04-02T11:06:24;98140.91;;;6.53;88.68
43155;BME280;34212;51.018;13.586;2023-04-02T11:11:33;98157.09;;;6.50;88.94
43155;BME280;34212;51.018;13.586;2023-04-02T11:16:36;98159.03;;;6.58;88.64
43155;BME280;34212;51.018;13.586;2023-04-02T11:21:49;98168.94;;;6.56;88.21
43155;BME280;34212;51.018;13.586;2023-04-02T11:37:41;98192.00;;;6.45;88.54
43155;BME280;34212;51.018;13.586;2023-04-02T11:42:50;98189.97;;;6.57;88.21
43155;BME280;34212;51.018;13.586;2023-04-02T12:04:06;98214.06;;;6.74;87.29
43155;BME280;34212;51.018;13.586;2023-04-02T12:09:19;98214.47;;;6.69;87.63
43155;BME280;34212;51.018;13.586;2023-04-02T12:19:36;98227.31;;;6.74;88.25
43155;BME280;34212;51.018;13.586;2023-04-02T12:24:39;98231.22;;;6.79;88.09
43155;BME280;34212;51.018;13.586;2023-04-02T12:29:41;98237.63;;;6.77;86.95
43155;BME280;34212;51.018;13.586;2023-04-02T12:34:44;98250.34;;;6.73;87.62
43155;BME280;34212;51.018;13.586;2023-04-02T12:39:53;98256.16;;;6.86;88.90
43155;BME280;34212;51.018;13.586;2023-04-02T12:44:55;98262.69;;;6.92;87.79
43155;BME280;34212;51.018;13.586;2023-04-02T12:49:58;98261.25;;;6.98;87.82
43155;BME280;34212;51.018;13.586;2023-04-02T12:55:02;98260.66;;;7.13;87.71
43155;BME280;34212;51.018;13.586;2023-04-02T13:05:34;98263.31;;;7.31;86.77
43155;BME280;34212;51.018;13.586;2023-04-02T13:10:36;98270.56;;;7.39;86.82
43155;BME280;34212;51.018;13.586;2023-04-02T13:15:38;98281.72;;;7.43;86.08
43155;BME280;34212;51.018;13.586;2023-04-02T13:20:41;98275.94;;;7.29;85.82
43155;BME280;34212;51.018;13.586;2023-04-02T13:25:43;98289.38;;;7.18;86.17
43155;BME280;34212;51.018;13.586;2023-04-02T13:30:44;98298.03;;;7.20;86.12
43155;BME280;34212;51.018;13.586;2023-04-02T13:35:46;98302.19;;;7.23;85.66
43155;BME280;34212;51.018;13.586;2023-04-02T13:40:48;98312.22;;;7.29;85.81
43155;BME280;34212;51.018;13.586;2023-04-02T13:45:51;98316.09;;;7.34;85.01
43155;BME280;34212;51.018;13.586;2023-04-02T13:50:54;98319.44;;;7.36;85.37
43155;BME280;34212;51.018;13.586;2023-04-02T13:55:56;98318.97;;;7.23;84.64
43155;BME280;34212;51.018;13.586;2023-04-02T14:00:57;98337.97;;;7.09;84.25
43155;BME280;34212;51.018;13.586;2023-04-02T14:16:33;98341.38;;;7.01;83.57
43155;BME280;34212;51.018;13.586;2023-04-02T14:27:07;98360.06;;;7.00;83.67
43155;BME280;34212;51.018;13.586;2023-04-02T14:32:30;98376.25;;;6.97;83.73
43155;BME280;34212;51.018;13.586;2023-04-02T14:37:56;98373.63;;;6.87;83.71
43155;BME280;34212;51.018;13.586;2023-04-02T14:43:10;98376.44;;;6.85;83.84
43155;BME280;34212;51.018;13.586;2023-04-02T14:48:38;98378.22;;;6.85;83.38
43155;BME280;34212;51.018;13.586;2023-04-02T14:54:02;98376.59;;;6.74;83.73
43155;BME280;34212;51.018;13.586;2023-04-02T14:59:48;98396.13;;;6.73;83.91
43155;BME280;34212;51.018;13.586;2023-04-02T15:04:55;98387.06;;;6.66;83.97
43155;BME280;34212;51.018;13.586;2023-04-02T15:15:37;98383.84;;;6.62;83.42
43155;BME280;34212;51.018;13.586;2023-04-02T15:20:59;98395.56;;;6.60;83.05
43155;BME280;34212;51.018;13.586;2023-04-02T15:31:12;98403.66;;;6.58;83.62
43155;BME280;34212;51.018;13.586;2023-04-02T15:41:34;98423.75;;;6.61;83.58
43155;BME280;34212;51.018;13.586;2023-04-02T15:52:18;98432.09;;;6.66;83.79
43155;BME280;34212;51.018;13.586;2023-04-02T16:09:02;98455.13;;;6.56;83.50
43155;BME280;34212;51.018;13.586;2023-04-02T16:14:29;98452.47;;;6.56;84.11
43155;BME280;34212;51.018;13.586;2023-04-02T16:19:41;98449.72;;;6.67;83.89
43155;BME280;34212;51.018;13.586;2023-04-02T16:24:54;98461.97;;;6.68;83.79
43155;BME280;34212;51.018;13.586;2023-04-02T16:30:11;98464.63;;;6.68;83.50
43155;BME280;34212;51.018;13.586;2023-04-02T16:46:16;98491.41;;;6.65;84.17
43155;BME280;34212;51.018;13.586;2023-04-02T16:57:27;98499.91;;;6.59;84.74
43155;BME280;34212;51.018;13.586;2023-04-02T17:02:44;98501.84;;;6.57;84.15
43155;BME280;34212;51.018;13.586;2023-04-02T17:13:34;98523.47;;;6.52;84.24
43155;BME280;34212;51.018;13.586;2023-04-02T17:18:42;98517.72;;;6.47;84.44
43155;BME280;34212;51.018;13.586;2023-04-02T17:24:25;98529.72;;;6.41;84.22
43155;BME280;34212;51.018;13.586;2023-04-02T17:29:37;98533.88;;;6.34;84.56
43155;BME280;34212;51.018;13.586;2023-04-02T17:34:39;98537.78;;;6.30;85.00
43155;BME280;34212;51.018;13.586;2023-04-02T17:39:53;98538.31;;;6.24;84.38
43155;BME280;34212;51.018;13.586;2023-04-02T18:01:11;98553.66;;;6.20;85.15
43155;BME280;34212;51.018;13.586;2023-04-02T18:06:36;98557.25;;;6.19;84.92
43155;BME280;34212;51.018;13.586;2023-04-02T18:12:01;98560.84;;;6.09;85.18
43155;BME280;34212;51.018;13.586;2023-04-02T18:22:39;98571.81;;;6.04;85.23
43155;BME280;34212;51.018;13.586;2023-04-02T18:48:54;98616.31;;;5.89;86.41
43155;BME280;34212;51.018;13.586;2023-04-02T18:54:22;98620.91;;;5.87;85.82
43155;BME280;34212;51.018;13.586;2023-04-02T18:59:46;98618.25;;;5.87;85.94
43155;BME280;34212;51.018;13.586;2023-04-02T19:05:12;98630.50;;;5.88;85.51
43155;BME280;34212;51.018;13.586;2023-04-02T19:10:28;98634.03;;;5.89;85.93
43155;BME280;34212;51.018;13.586;2023-04-02T19:15:48;98647.13;;;5.90;85.44
43155;BME280;34212;51.018;13.586;2023-04-02T19:20:57;98645.19;;;5.92;85.98
43155;BME280;34212;51.018;13.586;2023-04-02T19:26:12;98646.63;;;5.96;85.55
43155;BME280;34212;51.018;13.586;2023-04-02T19:37:01;98651.25;;;5.83;85.78
43155;BME280;34212;51.018;13.586;2023-04-02T19:42:36;98666.63;;;5.89;86.07
43155;BME280;34212;51.018;13.586;2023-04-02T19:47:40;98664.94;;;5.88;86.02
43155;BME280;34212;51.018;13.586;2023-04-02T19:52:41;98675.19;;;5.82;85.91
43155;BME280;34212;51.018;13.586;2023-04-02T19:57:43;98668.34;;;5.79;86.31
43155;BME280;34212;51.018;13.586;2023-04-02T20:02:44;98669.06;;;5.81;85.86
43155;BME280;34212;51.018;13.586;2023-04-02T20:07:46;98676.91;;;5.83;86.15
43155;BME280;34212;51.018;13.586;2023-04-02T20:12:48;98686.63;;;5.82;85.83
43155;BME280;34212;51.018;13.586;2023-04-02T20:17:50;98682.88;;;5.85;85.89
43155;BME280;34212;51.018;13.586;2023-04-02T20:22:52;98673.84;;;5.87;86.08
43155;BME280;34212;51.018;13.586;2023-04-02T20:27:53;98687.91;;;5.88;86.01
43155;BME280;34212;51.018;13.586;2023-04-02T20:32:57;98690.56;;;5.88;85.33
43155;BME280;34212;51.018;13.586;2023-04-02T20:37:59;98703.22;;;5.84;85.71
43155;BME280;34212;51.018;13.586;2023-04-02T20:43:03;98709.50;;;5.83;85.49
43155;BME280;34212;51.018;13.586;2023-04-02T20:48:04;98713.09;;;5.82;85.36
43155;BME280;34212;51.018;13.586;2023-04-02T20:53:07;98718.38;;;5.82;85.60
43155;BME280;34212;51.018;13.586;2023-04-02T20:58:08;98717.22;;;5.75;85.74
43155;BME280;34212;51.018;13.586;2023-04-02T21:03:10;98717.63;;;5.70;85.25
43155;BME280;34212;51.018;13.586;2023-04-02T21:08:12;98721.59;;;5.65;84.66
43155;BME280;34212;51.018;13.586;2023-04-02T21:13:14;98729.78;;;5.62;84.79
43155;BME280;34212;51.018;13.586;2023-04-02T21:18:15;98731.72;;;5.60;84.81
43155;BME280;34212;51.018;13.586;2023-04-02T21:23:17;98740.50;;;5.60;84.73
43155;BME280;34212;51.018;13.586;2023-04-02T21:28:18;98736.28;;;5.57;84.50
43155;BME280;34212;51.018;13.586;2023-04-02T21:33:20;98740.75;;;5.57;84.45
43155;BME280;34212;51.018;13.586;2023-04-02T21:38:21;98745.09;;;5.58;84.54
43155;BME280;34212;51.018;13.586;2023-04-02T21:43:23;98753.63;;;5.62;84.23
43155;BME280;34212;51.018;13.586;2023-04-02T21:48:24;98753.63;;;5.62;84.61
43155;BME280;34212;51.018;13.586;2023-04-02T21:53:26;98750.81;;;5.63;84.78
43155;BME280;34212;51.018;13.586;2023-04-02T21:58:27;98759.16;;;5.59;84.58
43155;BME280;34212;51.018;13.586;2023-04-02T22:03:29;98754.13;;;5.55;84.65
43155;BME280;34212;51.018;13.586;2023-04-02T22:08:33;98763.28;;;5.51;84.34
43155;BME280;34212;51.018;13.586;2023-04-02T22:13:36;98768.81;;;5.48;84.34
43155;BME280;34212;51.018;13.586;2023-04-02T22:18:38;98770.97;;;5.43;84.55
43155;BME280;34212;51.018;13.586;2023-04-02T22:23:40;98769.66;;;5.38;84.35
43155;BME280;34212;51.018;13.586;2023-04-02T22:28:42;98767.16;;;5.36;84.67
43155;BME280;34212;51.018;13.586;2023-04-02T22:33:44;98778.69;;;5.35;84.67
43155;BME280;34212;51.018;13.586;2023-04-02T22:38:46;98786.16;;;5.30;84.50
43155;BME280;34212;51.018;13.586;2023-04-02T22:43:48;98779.56;;;5.24;84.14
43155;BME280;34212;51.018;13.586;2023-04-02T22:48:50;98787.13;;;5.18;84.39
43155;BME280;34212;51.018;13.586;2023-04-02T22:53:53;98791.69;;;5.16;83.83
43155;BME280;34212;51.018;13.586;2023-04-02T22:58:54;98790.63;;;5.07;84.75
43155;BME280;34212;51.018;13.586;2023-04-02T23:03:56;98790.75;;;5.05;84.86
43155;BME280;34212;51.018;13.586;2023-04-02T23:08:58;98798.94;;;5.02;84.39
43155;BME280;34212;51.018;13.586;2023-04-02T23:13:59;98802.16;;;4.95;83.91
43155;BME280;34212;51.018;13.586;2023-04-02T23:19:01;98802.88;;;4.85;84.35
43155;BME280;34212;51.018;13.586;2023-04-02T23:24:02;98811.16;;;4.81;84.18
43155;BME280;34212;51.018;13.586;2023-04-02T23:29:04;98816.69;;;4.78;83.50
43155;BME280;34212;51.018;13.586;2023-04-02T23:34:08;98802.03;;;4.74;84.27
43155;BME280;34212;51.018;13.586;2023-04-02T23:39:11;98803.22;;;4.70;83.82
43155;BME280;34212;51.018;13.586;2023-04-02T23:44:13;98811.16;;;4.58;83.64
43155;BME280;34212;51.018;13.586;2023-04-02T23:49:15;98813.75;;;4.47;82.55
43155;BME280;34212;51.018;13.586;2023-04-02T23:54:17;98808.56;;;4.34;82.58
43155;BME280;34212;51.018;13.586;2023-04-02T23:59:18;98811.06;;;4.25;82.25
